Pagina principală
METAR-TAF:

METAR-TAF

Aeroporturi :

Dyersburg, Tennessee, Statele Unite ale Americii

Latitudine: 36-00N, longitudine: 089-24W, elevație: 103 m

Observații meteo curente

Raportul a fost făcut în urmă cu 1 oră și 2 de minute, la 19:56 UTC
Vânt 8 kt de la Sud cu rafale de până la 20 kt
Temperatură 27°C
Umiditate 54%
Presiune 1012 hPa
Vizibilitate: 16.1 km
Nori puțini la o înălțime de 4400 picior

METAR: KDYR 161956Z AUTO 19008G20KT 10SM FEW044 27/17 A2989 RMK AO2 SLP125 T02720167

Ora: 15:58 (20:58 UTC)


TAF: lipsă

Observații și prognoze meteo pentru peste 4.000 de aeroporturi (rapoarte METAR și TAF).

Stațiile disponibile sunt reprezentate pe hartă prin puncte galbene și roșii.

Țineți indicatorul mouse-ului pe punctul dorit pentru a vedea denumirea stației.

Apoi, faceți clic pentru a vedea observațiile și prognozele meteorologice.

Pentru a schimba harta: Pentru mărire, faceți clic pe butoanele verzi cu cruce neagră; pentru micșorare, pe butonul verde cu o liniuță; pentru hărți învecinate, pe săgețile verzi.


METAR-TAF: